createdAt,value
2018-09-29T08:51:46.040Z,140.62
2018-09-29T08:52:44.464Z,140.62
2018-09-29T08:53:44.601Z,146.25
2018-09-29T08:56:09.748Z,151.88
2018-09-29T08:56:54.689Z,146.25
2018-09-29T09:00:06.575Z,151.88
2018-09-29T09:01:05.392Z,151.88
2018-09-29T09:02:05.376Z,168.75
2018-09-29T09:03:05.371Z,174.38
2018-09-29T09:04:05.491Z,174.38
2018-09-29T09:05:05.338Z,163.12
2018-09-29T09:06:05.323Z,151.88
2018-09-29T09:07:05.321Z,146.25
2018-09-29T09:08:05.315Z,151.88
2018-09-29T09:09:05.330Z,151.88
2018-09-29T09:10:05.304Z,163.12
2018-09-29T09:11:05.267Z,191.25
2018-09-29T09:12:05.362Z,185.62
2018-09-29T09:13:05.265Z,163.12
2018-09-29T09:14:06.410Z,151.88
2018-09-29T09:15:05.232Z,151.88
2018-09-29T09:16:05.268Z,151.88
2018-09-29T09:17:05.194Z,151.88
2018-09-29T09:18:05.187Z,151.88
2018-09-29T09:20:06.306Z,174.38
2018-09-29T09:21:05.149Z,191.25
2018-09-29T09:22:05.137Z,174.38
2018-09-29T09:23:05.155Z,196.88
2018-09-29T09:24:05.387Z,213.75
2018-09-29T09:25:05.225Z,174.38
2018-09-29T09:26:05.091Z,185.62
2018-09-29T09:27:05.289Z,230.62
2018-09-29T09:28:05.083Z,258.75
2018-09-29T09:29:05.220Z,270.00
2018-09-29T09:30:05.072Z,247.50
2018-09-29T09:32:07.107Z,151.88
2018-09-29T09:33:05.010Z,140.62
2018-09-29T09:34:05.006Z,151.88
2018-09-29T09:35:04.998Z,185.62
2018-09-29T09:36:04.998Z,168.75
2018-09-29T09:37:04.976Z,157.50
2018-09-29T09:38:04.964Z,241.88
2018-09-29T09:39:04.939Z,343.12
2018-09-29T09:40:04.971Z,382.50
2018-09-29T09:41:04.925Z,365.62
2018-09-29T09:42:04.958Z,630.00
2018-09-29T09:43:04.899Z,720.00
2018-09-29T09:44:04.885Z,781.88
2018-09-29T09:45:04.878Z,461.25
2018-09-29T09:46:04.888Z,523.12
2018-09-29T09:47:04.854Z,489.38
2018-09-29T09:48:04.842Z,461.25
2018-09-29T09:49:04.842Z,545.62
2018-09-29T09:50:04.823Z,703.12
2018-09-29T09:51:04.836Z,821.25
2018-09-29T09:52:04.813Z,596.25
2018-09-29T09:53:04.783Z,337.50
2018-09-29T09:54:04.770Z,264.38
2018-09-29T09:55:04.771Z,365.62
2018-09-29T09:56:04.795Z,472.50
2018-09-29T09:57:04.740Z,579.38
2018-09-29T09:58:04.740Z,663.75
2018-09-29T09:59:04.717Z,736.88
2018-09-29T10:00:04.715Z,669.38
2018-09-29T10:01:04.707Z,877.50
2018-09-29T10:02:04.702Z,984.38
2018-09-29T10:03:04.677Z,905.62
2018-09-29T10:04:04.692Z,815.62
2018-09-29T10:05:04.677Z,736.88
2018-09-29T10:06:04.639Z,838.12
2018-09-29T10:07:04.698Z,838.12
2018-09-29T10:08:04.616Z,928.12
2018-09-29T10:09:04.629Z,945.00
2018-09-29T10:10:04.614Z,939.38
2018-09-29T10:11:04.618Z,916.88
2018-09-29T10:12:04.575Z,810.00
2018-09-29T10:13:04.583Z,714.38
2018-09-29T10:14:04.552Z,714.38
2018-09-29T10:15:04.557Z,720.00
2018-09-29T10:16:04.558Z,675.00
2018-09-29T10:17:04.538Z,551.25
2018-09-29T10:18:04.502Z,433.12
2018-09-29T10:19:04.500Z,596.25
2018-09-29T10:20:04.489Z,753.75
2018-09-29T10:21:04.483Z,793.12
2018-09-29T10:22:04.502Z,810.00
2018-09-29T10:23:04.455Z,815.62
2018-09-29T10:24:25.500Z,787.50
2018-09-29T10:25:25.438Z,765.00
2018-09-29T10:26:04.421Z,669.38
2018-09-29T10:27:25.437Z,585.00
2018-09-29T10:28:04.392Z,573.75
2018-09-29T10:29:04.390Z,556.88
2018-09-29T10:30:04.377Z,405.00
2018-09-29T10:31:04.361Z,360.00
2018-09-29T10:32:04.405Z,354.38
2018-09-29T10:33:04.358Z,365.62
2018-09-29T10:34:04.332Z,365.62
2018-09-29T10:35:04.329Z,421.88
2018-09-29T10:36:04.307Z,489.38
2018-09-29T10:37:04.295Z,607.50
2018-09-29T10:38:04.302Z,680.62
2018-09-29T10:39:04.295Z,573.75
2018-09-29T10:40:04.267Z,433.12
2018-09-29T10:41:04.245Z,298.12
2018-09-29T10:42:04.270Z,174.38
2018-09-29T10:43:04.255Z,151.88
2018-09-29T10:44:04.261Z,140.62
2018-09-29T10:45:04.212Z,140.62
2018-09-29T10:46:04.194Z,140.62
2018-09-29T10:47:04.201Z,135.00
2018-09-29T10:48:04.195Z,129.38
2018-09-29T10:49:04.166Z,123.75
2018-09-29T10:50:04.149Z,123.75
2018-09-29T10:51:04.140Z,118.12
2018-09-29T10:52:04.137Z,118.12
2018-09-29T10:53:04.223Z,118.12
2018-09-29T10:54:04.108Z,118.12
2018-09-29T10:55:05.102Z,118.12
2018-09-29T10:56:25.087Z,112.50
2018-09-29T10:57:04.073Z,112.50
2018-09-29T10:58:04.082Z,112.50
2018-09-29T10:59:04.106Z,112.50
2018-09-29T11:00:04.043Z,112.50
2018-09-29T11:01:04.041Z,112.50
2018-09-29T11:02:04.021Z,112.50
2018-09-29T11:03:04.045Z,112.50
2018-09-29T11:04:03.993Z,112.50
2018-09-29T11:05:04.074Z,101.25
2018-09-29T11:06:03.987Z,118.12
2018-09-29T11:07:03.959Z,112.50
2018-09-29T11:08:03.948Z,106.88
2018-09-29T11:10:05.098Z,106.88
2018-09-29T11:11:03.922Z,106.88
2018-09-29T11:12:03.912Z,106.88
2018-09-29T11:13:24.907Z,106.88
2018-09-29T11:14:03.908Z,106.88
2018-09-29T11:15:03.915Z,112.50
2018-09-29T11:16:03.868Z,118.12
2018-09-29T11:17:03.855Z,163.12
2018-09-29T11:18:03.872Z,320.62
2018-09-29T11:19:03.820Z,466.88
2018-09-29T11:20:03.838Z,450.00
2018-09-29T11:21:03.821Z,365.62
2018-09-29T11:22:03.791Z,298.12
2018-09-29T11:23:03.785Z,264.38
2018-09-29T11:24:03.772Z,264.38
2018-09-29T11:25:03.807Z,253.12
2018-09-29T11:26:03.920Z,241.88
2018-09-29T11:27:03.742Z,174.38
2018-09-29T11:28:03.753Z,129.38
2018-09-29T11:29:03.772Z,112.50
2018-09-29T11:30:03.740Z,106.88
2018-09-29T11:31:03.710Z,106.88
2018-09-29T11:33:04.816Z,106.88
2018-09-29T11:34:03.666Z,112.50
2018-09-29T11:35:03.815Z,106.88
2018-09-29T11:36:03.641Z,106.88
2018-09-29T11:37:03.639Z,106.88
2018-09-29T11:38:03.612Z,106.88
2018-09-29T11:39:03.614Z,112.50
2018-09-29T11:40:03.602Z,112.50
2018-09-29T11:41:03.618Z,112.50
2018-09-29T11:42:03.571Z,112.50
2018-09-29T11:43:03.553Z,112.50
2018-09-29T11:44:03.552Z,112.50
2018-09-29T11:45:03.547Z,84.38
2018-09-29T11:46:03.522Z,106.88
2018-09-29T11:47:03.522Z,112.50
2018-09-29T11:48:03.668Z,112.50
2018-09-29T11:49:03.485Z,112.50
2018-09-29T11:50:03.492Z,112.50
2018-09-29T11:51:03.478Z,112.50
2018-09-29T11:52:03.453Z,112.50
2018-09-29T11:53:03.455Z,112.50
2018-09-29T11:54:03.450Z,112.50
2018-09-29T11:55:03.445Z,112.50
2018-09-29T11:56:03.448Z,112.50
2018-09-29T11:57:03.404Z,112.50
2018-09-29T11:58:03.399Z,112.50
2018-09-29T11:59:03.373Z,118.12
2018-09-29T12:00:03.408Z,118.12
2018-09-29T12:01:03.358Z,118.12
2018-09-29T12:02:03.369Z,118.12
2018-09-29T12:03:03.348Z,118.12
2018-09-29T12:04:03.328Z,123.75
2018-09-29T12:05:03.357Z,123.75
2018-09-29T12:06:03.411Z,123.75
2018-09-29T12:07:03.349Z,123.75
2018-09-29T12:08:03.366Z,123.75
2018-09-29T12:09:03.298Z,123.75
2018-09-29T12:10:03.275Z,123.75
2018-09-29T12:11:03.239Z,123.75
2018-09-29T12:12:03.265Z,123.75
2018-09-29T12:13:03.220Z,123.75
2018-09-29T12:14:03.212Z,123.75
2018-09-29T12:15:03.223Z,123.75
2018-09-29T12:16:03.201Z,123.75
2018-09-29T12:17:03.204Z,123.75
2018-09-29T12:18:03.167Z,123.75
2018-09-29T12:19:03.153Z,129.38
2018-09-29T12:20:03.152Z,118.12
2018-09-29T12:21:03.187Z,129.38
2018-09-29T12:22:03.150Z,123.75
2018-09-29T12:23:03.131Z,118.12
2018-09-29T12:24:03.103Z,118.12
2018-09-29T12:25:03.085Z,118.12
2018-09-29T12:26:03.093Z,118.12
2018-09-29T12:27:03.106Z,118.12
2018-09-29T12:28:03.049Z,118.12
2018-09-29T12:29:03.053Z,118.12
2018-09-29T12:30:03.029Z,118.12
2018-09-29T12:31:03.039Z,118.12
2018-09-29T12:32:03.045Z,118.12
2018-09-29T12:33:02.997Z,112.50
2018-09-29T12:34:02.978Z,112.50
2018-09-29T12:35:02.971Z,112.50
2018-09-29T12:36:02.963Z,112.50
2018-09-29T12:37:03.106Z,112.50
2018-09-29T12:38:02.950Z,112.50
2018-09-29T12:39:02.945Z,112.50
2018-09-29T12:40:02.921Z,118.12
2018-09-29T12:41:02.907Z,112.50
2018-09-29T12:42:02.908Z,118.12
2018-09-29T12:43:02.902Z,112.50
2018-09-29T12:44:02.884Z,112.50
2018-09-29T12:45:02.875Z,112.50
2018-09-29T12:46:02.847Z,112.50
2018-09-29T12:47:02.870Z,112.50
2018-09-29T12:48:02.837Z,112.50
2018-09-29T12:49:02.813Z,112.50
2018-09-29T12:50:02.839Z,112.50
2018-09-29T12:51:02.797Z,112.50
2018-09-29T12:52:02.867Z,112.50
2018-09-29T12:53:02.777Z,112.50
2018-09-29T12:54:02.779Z,112.50
2018-09-29T12:55:02.752Z,112.50
2018-09-29T12:56:02.743Z,112.50
2018-09-29T12:57:02.765Z,112.50
2018-09-29T12:58:02.720Z,112.50
2018-09-29T12:59:02.796Z,106.88
2018-09-29T13:00:02.697Z,106.88
2018-09-29T13:01:02.698Z,106.88
2018-09-29T13:02:02.720Z,106.88
2018-09-29T13:03:02.690Z,106.88
2018-09-29T13:04:02.654Z,106.88
2018-09-29T13:05:02.692Z,101.25
2018-09-29T13:06:02.625Z,101.25
2018-09-29T13:07:02.646Z,101.25
2018-09-29T13:08:02.609Z,101.25
2018-09-29T13:09:02.612Z,101.25
2018-09-29T13:10:02.598Z,101.25
2018-09-29T13:11:02.637Z,101.25
2018-09-29T13:12:02.560Z,101.25
2018-09-29T13:13:02.650Z,101.25
2018-09-29T13:14:02.600Z,101.25
2018-09-29T13:15:02.530Z,101.25
2018-09-29T13:16:02.529Z,101.25
2018-09-29T13:17:02.628Z,101.25
2018-09-29T13:18:02.540Z,101.25
2018-09-29T13:19:02.511Z,101.25
2018-09-29T13:20:02.490Z,101.25
2018-09-29T13:21:02.465Z,101.25
2018-09-29T13:22:02.456Z,101.25
2018-09-29T13:23:02.683Z,95.62
2018-09-29T13:24:02.473Z,95.62
2018-09-29T13:25:02.418Z,95.62
2018-09-29T13:26:02.411Z,95.62
2018-09-29T13:27:02.404Z,95.62
2018-09-29T13:28:02.390Z,95.62
2018-09-29T13:29:02.394Z,95.62
2018-09-29T13:30:02.481Z,95.62
2018-09-29T13:31:02.344Z,95.62
2018-09-29T13:32:02.420Z,95.62
2018-09-29T13:33:02.342Z,95.62
2018-09-29T13:34:02.357Z,101.25
2018-09-29T13:35:02.315Z,95.62
2018-09-29T13:36:02.292Z,90.00
2018-09-29T13:37:02.306Z,90.00
2018-09-29T13:38:02.285Z,90.00
2018-09-29T13:39:02.291Z,90.00
2018-09-29T13:40:02.278Z,90.00
2018-09-29T13:41:02.234Z,90.00
2018-09-29T13:42:02.222Z,90.00
2018-09-29T13:43:02.247Z,90.00
2018-09-29T13:44:02.212Z,90.00
2018-09-29T13:45:02.219Z,90.00
2018-09-29T13:46:02.273Z,90.00
2018-09-29T13:47:02.173Z,84.38
2018-09-29T13:48:02.164Z,84.38
2018-09-29T13:49:02.146Z,84.38
2018-09-29T13:50:02.191Z,84.38
2018-09-29T13:51:02.125Z,84.38
2018-09-29T13:52:02.141Z,84.38
2018-09-29T13:53:02.099Z,84.38
2018-09-29T13:54:02.103Z,84.38
2018-09-29T13:55:02.112Z,84.38
2018-09-29T13:56:02.078Z,84.38
2018-09-29T13:57:02.076Z,84.38
2018-09-29T13:58:02.045Z,84.38
2018-09-29T13:59:02.032Z,84.38
2018-09-29T14:00:02.060Z,84.38
2018-09-29T14:01:02.058Z,84.38
2018-09-29T14:02:02.025Z,84.38
2018-09-29T14:03:01.992Z,84.38
2018-09-29T14:04:01.988Z,84.38
2018-09-29T14:05:01.997Z,84.38
2018-09-29T14:06:01.955Z,84.38
2018-09-29T14:07:01.952Z,84.38
2018-09-29T14:08:01.968Z,84.38
2018-09-29T14:09:01.951Z,84.38
2018-09-29T14:10:01.976Z,84.38
2018-09-29T14:11:01.901Z,78.75
2018-09-29T14:12:01.888Z,84.38
2018-09-29T14:13:01.890Z,84.38
2018-09-29T14:14:01.881Z,78.75
2018-09-29T14:15:01.890Z,78.75
2018-09-29T14:16:01.863Z,78.75
2018-09-29T14:17:01.834Z,78.75
2018-09-29T14:18:01.824Z,78.75
2018-09-29T14:19:01.822Z,78.75
2018-09-29T14:20:01.880Z,78.75
2018-09-29T14:21:01.818Z,78.75
2018-09-29T14:22:01.773Z,78.75
2018-09-29T14:23:01.793Z,78.75
2018-09-29T14:24:01.758Z,78.75
2018-09-29T14:25:01.750Z,78.75
2018-09-29T14:26:01.756Z,78.75
2018-09-29T14:27:01.730Z,78.75
2018-09-29T14:28:01.718Z,78.75
2018-09-29T14:29:01.702Z,73.12
2018-09-29T14:30:01.749Z,73.12
2018-09-29T14:31:01.706Z,73.12
2018-09-29T14:32:01.679Z,73.12
2018-09-29T14:33:01.660Z,73.12
2018-09-29T14:34:01.657Z,67.50
2018-09-29T14:35:01.634Z,67.50
2018-09-29T14:36:01.626Z,73.12
2018-09-29T14:37:01.690Z,73.12
2018-09-29T14:38:01.599Z,67.50
2018-09-29T14:39:01.610Z,73.12
2018-09-29T14:40:01.589Z,73.12
2018-09-29T14:41:01.595Z,73.12
2018-09-29T14:42:01.718Z,67.50
2018-09-29T14:43:01.564Z,67.50
2018-09-29T14:44:01.536Z,67.50
2018-09-29T14:45:01.647Z,67.50
2018-09-29T14:46:01.529Z,67.50
2018-09-29T14:47:01.521Z,67.50
2018-09-29T14:48:01.492Z,67.50
2018-09-29T14:49:01.475Z,67.50
2018-09-29T14:50:01.462Z,67.50
2018-09-29T14:51:01.457Z,67.50
2018-09-29T14:52:01.462Z,67.50
2018-09-29T14:53:01.446Z,67.50
2018-09-29T14:54:01.428Z,61.88
2018-09-29T14:55:01.430Z,61.88
2018-09-29T14:56:01.409Z,61.88
2018-09-29T14:57:01.438Z,56.25
2018-09-29T14:58:01.420Z,56.25
2018-09-29T14:59:01.367Z,56.25
2018-09-29T15:00:01.373Z,56.25
2018-09-29T15:01:01.353Z,56.25
2018-09-29T15:02:01.352Z,50.62
2018-09-29T15:03:01.340Z,50.62
2018-09-29T15:04:01.366Z,50.62
2018-09-29T15:05:01.302Z,50.62
2018-09-29T15:06:01.288Z,45.00
2018-09-29T15:07:01.315Z,45.00
2018-09-29T15:08:01.279Z,45.00
2018-09-29T15:09:01.255Z,45.00
2018-09-29T15:10:01.250Z,45.00
2018-09-29T15:11:01.233Z,45.00
2018-09-29T15:12:01.245Z,45.00
2018-09-29T15:13:01.212Z,45.00
2018-09-29T15:14:01.444Z,45.00
2018-09-29T15:15:01.190Z,45.00
2018-09-29T15:16:01.178Z,45.00
2018-09-29T15:17:01.195Z,45.00
2018-09-29T15:18:01.163Z,45.00
2018-09-29T15:19:01.151Z,45.00
2018-09-29T15:20:01.133Z,45.00
2018-09-29T15:21:01.125Z,45.00
2018-09-29T15:22:01.127Z,45.00
2018-09-29T15:23:01.127Z,45.00
2018-09-29T15:24:01.104Z,50.62
2018-09-29T15:25:01.078Z,50.62
2018-09-29T15:26:01.091Z,50.62
2018-09-29T15:27:01.056Z,50.62
2018-09-29T15:28:01.096Z,50.62
2018-09-29T15:29:01.042Z,50.62
2018-09-29T15:30:01.021Z,50.62
2018-09-29T15:31:01.025Z,50.62
2018-09-29T15:32:01.001Z,50.62
2018-09-29T15:33:01.004Z,50.62
2018-09-29T15:34:00.974Z,50.62
2018-09-29T15:35:00.962Z,45.00
2018-09-29T15:36:00.953Z,45.00
2018-09-29T15:37:01.014Z,45.00
2018-09-29T15:38:00.958Z,45.00
2018-09-29T15:39:00.919Z,45.00
2018-09-29T15:40:01.000Z,45.00
2018-09-29T15:41:00.899Z,45.00
2018-09-29T15:42:00.898Z,45.00
2018-09-29T15:43:00.927Z,45.00
2018-09-29T15:44:00.874Z,39.38
2018-09-29T15:45:00.911Z,39.38
2018-09-29T15:46:00.831Z,39.38
2018-09-29T15:47:00.829Z,39.38
2018-09-29T15:48:00.835Z,39.38
2018-09-29T15:49:00.807Z,39.38
2018-09-29T15:50:00.798Z,39.38
2018-09-29T15:51:00.776Z,39.38
2018-09-29T15:52:00.777Z,39.38
2018-09-29T15:53:00.778Z,39.38
2018-09-29T15:54:00.736Z,39.38
2018-09-29T15:55:00.793Z,39.38
2018-09-29T15:56:00.725Z,39.38
2018-09-29T15:57:00.705Z,39.38
2018-09-29T15:58:00.729Z,39.38
2018-09-29T15:59:00.702Z,39.38
2018-09-29T16:00:00.673Z,39.38
2018-09-29T16:01:00.669Z,33.75
2018-09-29T16:02:00.668Z,33.75
2018-09-29T16:03:00.647Z,33.75
2018-09-29T16:04:00.654Z,33.75
2018-09-29T16:05:00.641Z,28.12
2018-09-29T16:06:00.606Z,28.12
2018-09-29T16:07:00.616Z,28.12
2018-09-29T16:08:00.606Z,28.12
2018-09-29T16:09:00.664Z,28.12
2018-09-29T16:10:00.557Z,28.12
2018-09-29T16:11:00.545Z,28.12
2018-09-29T16:12:00.540Z,28.12
2018-09-29T16:13:00.532Z,28.12
2018-09-29T16:14:00.572Z,28.12
2018-09-29T16:15:00.512Z,28.12
2018-09-29T16:16:00.498Z,28.12
2018-09-29T16:17:00.490Z,22.50
2018-09-29T16:18:00.478Z,22.50
2018-09-29T16:19:00.518Z,22.50
2018-09-29T16:20:00.462Z,22.50
2018-09-29T16:21:00.432Z,22.50
2018-09-29T16:22:00.431Z,22.50
2018-09-29T16:23:00.427Z,22.50
2018-09-29T16:24:00.406Z,22.50
2018-09-29T16:25:00.410Z,16.88
2018-09-29T16:26:00.397Z,16.88
2018-09-29T16:27:00.386Z,16.88
2018-09-29T16:28:00.364Z,16.88
2018-09-29T16:29:00.538Z,16.88
2018-09-29T16:30:00.355Z,16.88
2018-09-29T16:31:00.333Z,16.88
2018-09-29T16:32:00.327Z,16.88
2018-09-29T16:33:00.317Z,16.88
2018-09-29T16:34:00.298Z,16.88
2018-09-29T16:35:00.322Z,16.88
2018-09-29T16:36:00.268Z,11.25
2018-09-29T16:37:00.261Z,11.25
2018-09-29T16:38:00.257Z,11.25
2018-09-29T16:39:00.249Z,11.25
2018-09-29T16:40:00.240Z,11.25
2018-09-29T16:41:00.255Z,11.25
2018-09-29T16:42:00.208Z,11.25
2018-09-29T16:43:00.190Z,11.25
2018-09-29T16:44:00.194Z,11.25
2018-09-29T16:45:00.228Z,11.25
2018-09-29T16:46:00.162Z,11.25
2018-09-29T16:47:00.149Z,11.25
2018-09-29T16:48:00.139Z,11.25
2018-09-29T16:49:00.138Z,11.25
2018-09-29T16:50:00.120Z,5.62
2018-09-29T16:51:00.137Z,5.62
2018-09-29T16:52:00.104Z,5.62
2018-09-29T16:53:00.095Z,5.62
2018-09-29T16:54:00.075Z,5.62
2018-09-29T16:55:00.062Z,5.62
2018-09-29T16:56:00.072Z,5.62
2018-09-29T16:57:00.051Z,5.62
2018-09-29T16:58:00.028Z,5.62
2018-09-29T16:59:00.023Z,5.62
2018-09-29T17:00:00.008Z,5.62
2018-09-29T17:00:59.992Z,5.62
2018-09-29T17:01:59.997Z,5.62
2018-09-29T17:02:59.979Z,5.62
2018-09-29T17:04:00.005Z,5.62
2018-09-29T17:04:59.948Z,5.62
2018-09-29T17:05:59.958Z,0.00
2018-09-29T17:06:59.968Z,0.00
2018-09-29T17:07:59.917Z,0.00
2018-09-29T17:08:59.904Z,0.00
2018-09-29T17:09:59.897Z,0.00
2018-09-29T17:11:00.002Z,0.00
2018-09-29T17:12:00.074Z,0.00
2018-09-29T17:12:59.995Z,0.00
2018-09-29T17:13:59.888Z,0.00
2018-09-29T17:14:59.837Z,0.00
2018-09-29T17:16:00.026Z,0.00
2018-09-29T17:16:59.913Z,0.00
2018-09-29T17:19:01.249Z,0.00
2018-09-29T17:19:59.794Z,0.00
2018-09-29T17:20:59.786Z,0.00
2018-09-29T17:21:59.885Z,0.00
2018-09-29T17:22:59.779Z,0.00
2018-09-29T17:24:00.068Z,0.00
2018-09-29T17:24:59.723Z,0.00
2018-09-29T17:25:59.941Z,0.00
2018-09-29T17:26:59.777Z,0.00
2018-09-29T17:27:59.810Z,0.00
2018-09-29T17:30:00.904Z,0.00
2018-09-29T17:30:59.661Z,0.00
2018-09-29T17:31:59.710Z,0.00
2018-09-29T17:32:59.641Z,0.00
2018-09-29T17:33:59.671Z,0.00
2018-09-29T17:34:59.624Z,0.00
2018-09-29T17:35:59.598Z,0.00
2018-09-29T17:36:59.648Z,0.00
2018-09-29T17:37:59.577Z,0.00
2018-09-29T17:38:59.599Z,0.00
2018-09-29T17:41:00.742Z,0.00
2018-09-29T17:41:59.546Z,0.00
2018-09-29T17:42:59.554Z,0.00
2018-09-29T17:43:59.516Z,0.00
2018-09-29T17:44:59.511Z,0.00
2018-09-29T17:45:59.503Z,0.00
2018-09-29T17:46:59.487Z,0.00
2018-09-29T17:47:59.582Z,0.00
2018-09-29T17:48:59.476Z,0.00
2018-09-29T17:49:59.460Z,0.00
2018-09-29T17:50:59.440Z,0.00
2018-09-29T17:53:00.636Z,0.00
2018-09-29T17:53:59.410Z,0.00
2018-09-29T17:54:59.416Z,0.00
2018-09-29T17:55:59.376Z,0.00
2018-09-29T17:56:59.377Z,0.00
2018-09-29T17:57:59.389Z,0.00
2018-09-29T17:58:59.351Z,0.00
2018-09-29T17:59:59.358Z,0.00
2018-09-29T18:00:59.332Z,0.00
2018-09-29T18:01:59.341Z,0.00
2018-09-29T18:02:59.329Z,0.00
2018-09-29T18:03:59.335Z,0.00
2018-09-29T18:04:59.283Z,0.00
2018-09-29T18:05:59.286Z,0.00
2018-09-29T18:06:59.290Z,0.00
2018-09-29T18:07:59.278Z,0.00
2018-09-29T18:08:59.246Z,0.00
2018-09-29T18:09:59.212Z,0.00
2018-09-29T18:10:59.239Z,0.00
2018-09-29T18:11:59.195Z,0.00
2018-09-29T18:12:59.195Z,0.00
2018-09-29T18:13:59.164Z,0.00
2018-09-29T18:14:59.198Z,0.00
2018-09-29T18:15:59.156Z,0.00
2018-09-29T18:16:59.133Z,0.00
2018-09-29T18:17:59.168Z,0.00
2018-09-29T18:18:59.113Z,0.00
2018-09-29T18:19:59.124Z,0.00
2018-09-29T18:20:59.085Z,0.00
2018-09-29T18:21:59.195Z,0.00
2018-09-29T18:22:59.102Z,0.00
2018-09-29T18:23:59.070Z,0.00
2018-09-29T18:25:01.885Z,0.00
2018-09-29T18:25:59.040Z,0.00
2018-09-29T18:26:59.028Z,0.00
2018-09-29T18:27:59.087Z,0.00
2018-09-29T18:28:59.023Z,0.00
2018-09-29T18:29:58.986Z,0.00
2018-09-29T18:30:58.992Z,0.00
2018-09-29T18:31:58.973Z,0.00
2018-09-29T18:32:58.989Z,0.00
2018-09-29T18:33:58.974Z,0.00
2018-09-29T18:34:58.928Z,0.00
2018-09-29T18:35:58.964Z,0.00
2018-09-29T18:36:58.938Z,0.00
2018-09-29T18:39:00.077Z,0.00
2018-09-29T18:39:58.875Z,0.00
2018-09-29T18:40:58.865Z,0.00
2018-09-29T18:41:58.861Z,0.00
2018-09-29T18:42:58.855Z,0.00
2018-09-29T18:43:58.882Z,0.00
2018-09-29T18:44:58.951Z,0.00
2018-09-29T18:45:58.809Z,0.00
2018-09-29T18:46:58.801Z,0.00
2018-09-29T18:47:58.812Z,0.00
2018-09-29T18:48:58.800Z,0.00
2018-09-29T18:49:58.768Z,0.00
2018-09-29T18:50:58.780Z,0.00
2018-09-29T18:51:58.762Z,0.00
2018-09-29T18:52:58.740Z,0.00
2018-09-29T18:53:58.745Z,0.00
2018-09-29T18:54:58.760Z,0.00
2018-09-29T18:55:58.728Z,0.00
2018-09-29T18:56:58.686Z,0.00
2018-09-29T18:57:58.677Z,0.00
2018-09-29T18:58:58.757Z,0.00
2018-09-29T18:59:58.660Z,0.00
2018-09-29T19:00:58.678Z,0.00
2018-09-29T19:01:58.634Z,0.00
2018-09-29T19:02:58.626Z,0.00
2018-09-29T19:03:58.659Z,0.00
2018-09-29T19:04:58.608Z,0.00
2018-09-29T19:05:58.614Z,0.00
2018-09-29T19:06:58.585Z,0.00
2018-09-29T19:07:58.598Z,0.00
2018-09-29T19:08:58.569Z,0.00
2018-09-29T19:09:58.561Z,0.00
2018-09-29T19:10:58.536Z,0.00
2018-09-29T19:11:58.632Z,0.00
2018-09-29T19:12:58.598Z,0.00
2018-09-29T19:13:58.513Z,0.00
2018-09-29T19:14:58.523Z,0.00
2018-09-29T19:15:58.494Z,0.00
2018-09-29T19:16:58.463Z,0.00
2018-09-29T19:17:58.466Z,0.00
2018-09-29T19:18:58.444Z,0.00
2018-09-29T19:19:58.476Z,0.00
2018-09-29T19:20:58.423Z,0.00
2018-09-29T19:21:58.415Z,0.00
2018-09-29T19:22:58.405Z,0.00
2018-09-29T19:23:58.404Z,0.00
2018-09-29T19:24:58.405Z,0.00
2018-09-29T19:25:58.364Z,0.00
2018-09-29T19:26:58.365Z,0.00
2018-09-29T19:27:58.358Z,0.00
2018-09-29T19:28:58.347Z,0.00
2018-09-29T19:29:58.337Z,0.00
2018-09-29T19:30:58.334Z,0.00
2018-09-29T19:31:58.299Z,0.00
2018-09-29T19:32:58.288Z,0.00
2018-09-29T19:33:58.274Z,0.00
2018-09-29T19:34:58.279Z,0.00
2018-09-29T19:35:58.285Z,0.00
2018-09-29T19:36:58.258Z,0.00
2018-09-29T19:37:58.233Z,0.00
2018-09-29T19:38:58.236Z,0.00
2018-09-29T19:39:58.202Z,0.00
2018-09-29T19:40:58.244Z,0.00
2018-09-29T19:41:58.217Z,0.00
2018-09-29T19:42:58.176Z,0.00
2018-09-29T19:43:58.177Z,0.00
2018-09-29T19:44:58.171Z,0.00
2018-09-29T19:45:58.161Z,0.00
2018-09-29T19:46:58.137Z,0.00
2018-09-29T19:47:58.116Z,0.00
2018-09-29T19:48:58.125Z,0.00
2018-09-29T19:49:58.093Z,0.00
2018-09-29T19:50:58.242Z,0.00
2018-09-29T19:51:58.096Z,0.00
2018-09-29T19:52:58.082Z,0.00
2018-09-29T19:53:58.061Z,0.00
2018-09-29T19:54:58.037Z,0.00
2018-09-29T19:55:58.063Z,0.00
2018-09-29T19:56:58.038Z,0.00
2018-09-29T19:57:58.010Z,0.00
2018-09-29T19:58:57.988Z,0.00
2018-09-29T19:59:57.981Z,0.00
2018-09-29T20:00:57.992Z,0.00
2018-09-29T20:01:57.992Z,0.00
2018-09-29T20:02:57.967Z,0.00
2018-09-29T20:03:57.948Z,0.00
2018-09-29T20:04:57.924Z,0.00
2018-09-29T20:05:57.913Z,0.00
2018-09-29T20:06:57.941Z,0.00
2018-09-29T20:07:57.911Z,0.00
2018-09-29T20:08:57.890Z,0.00
2018-09-29T20:09:57.952Z,0.00
2018-09-29T20:10:57.847Z,0.00
2018-09-29T20:11:57.856Z,0.00
2018-09-29T20:12:57.848Z,0.00
2018-09-29T20:13:57.859Z,0.00
2018-09-29T20:14:57.819Z,0.00
2018-09-29T20:15:57.799Z,0.00
2018-09-29T20:16:57.827Z,0.00
2018-09-29T20:17:57.826Z,0.00
2018-09-29T20:18:57.813Z,0.00
2018-09-29T20:19:57.759Z,0.00
2018-09-29T20:20:57.748Z,0.00
2018-09-29T20:21:57.730Z,0.00
2018-09-29T20:22:57.730Z,0.00
2018-09-29T20:23:57.746Z,0.00
2018-09-29T20:24:57.706Z,0.00
2018-09-29T20:25:57.713Z,0.00
2018-09-29T20:26:57.679Z,0.00
2018-09-29T20:27:57.702Z,0.00
2018-09-29T20:28:57.673Z,0.00
2018-09-29T20:29:57.635Z,0.00
2018-09-29T20:30:57.658Z,0.00
2018-09-29T20:31:57.627Z,0.00
2018-09-29T20:32:57.635Z,0.00
2018-09-29T20:33:57.638Z,0.00
2018-09-29T20:34:57.588Z,0.00
2018-09-29T20:35:58.288Z,0.00
2018-09-29T20:36:57.570Z,0.00
2018-09-29T20:37:57.595Z,0.00
2018-09-29T20:38:57.557Z,0.00
2018-09-29T20:39:57.519Z,0.00
2018-09-29T20:40:57.522Z,0.00
2018-09-29T20:41:57.500Z,0.00
2018-09-29T20:42:57.509Z,0.00
2018-09-29T20:43:57.508Z,0.00
2018-09-29T20:44:57.466Z,0.00
2018-09-29T20:45:57.463Z,0.00
2018-09-29T20:46:57.446Z,0.00
2018-09-29T20:47:57.432Z,0.00
2018-09-29T20:48:57.470Z,0.00
2018-09-29T20:49:57.455Z,0.00
2018-09-29T20:50:57.413Z,0.00
2018-09-29T20:51:57.392Z,0.00
2018-09-29T20:52:57.391Z,0.00
2018-09-29T20:53:57.383Z,0.00
2018-09-29T20:54:57.655Z,0.00
2018-09-29T20:55:57.337Z,0.00
2018-09-29T20:56:57.326Z,0.00
2018-09-29T20:57:57.343Z,0.00
2018-09-29T20:58:57.331Z,0.00
2018-09-29T20:59:57.316Z,0.00
2018-09-29T21:00:57.293Z,0.00
2018-09-29T21:01:57.277Z,0.00
2018-09-29T21:02:57.332Z,0.00
2018-09-29T21:03:57.281Z,0.00
2018-09-29T21:04:57.261Z,0.00
2018-09-29T21:05:57.261Z,0.00
2018-09-29T21:06:57.266Z,0.00
2018-09-29T21:07:57.360Z,0.00
2018-09-29T21:08:57.264Z,0.00
2018-09-29T21:09:57.435Z,0.00
2018-09-29T21:10:57.234Z,0.00
2018-09-29T21:11:57.159Z,0.00
2018-09-29T21:12:57.278Z,0.00
2018-09-29T21:13:57.394Z,0.00
2018-09-29T21:14:57.137Z,0.00
2018-09-29T21:15:57.114Z,0.00
2018-09-29T21:16:57.128Z,0.00
2018-09-29T21:17:57.095Z,0.00
2018-09-29T21:18:57.126Z,0.00
2018-09-29T21:19:57.083Z,0.00
2018-09-29T21:20:57.061Z,0.00
2018-09-29T21:21:57.057Z,0.00
2018-09-29T21:22:57.044Z,0.00
2018-09-29T21:23:57.388Z,0.00
2018-09-29T21:24:57.056Z,0.00
2018-09-29T21:25:57.044Z,0.00
2018-09-29T21:26:56.999Z,0.00
2018-09-29T21:27:56.983Z,0.00
2018-09-29T21:28:56.966Z,0.00
2018-09-29T21:29:57.027Z,0.00
2018-09-29T21:30:56.947Z,0.00
2018-09-29T21:31:56.938Z,0.00
2018-09-29T21:32:56.934Z,0.00
2018-09-29T21:33:56.914Z,0.00
2018-09-29T21:34:56.927Z,0.00
2018-09-29T21:35:56.888Z,0.00
2018-09-29T21:36:56.877Z,0.00
2018-09-29T21:37:56.874Z,0.00
2018-09-29T21:38:56.871Z,0.00
2018-09-29T21:39:56.894Z,0.00
2018-09-29T21:40:56.837Z,0.00
2018-09-29T21:41:56.831Z,0.00
2018-09-29T21:42:56.823Z,0.00
2018-09-29T21:43:56.801Z,0.00
2018-09-29T21:44:56.792Z,0.00
2018-09-29T21:45:56.809Z,0.00
2018-09-29T21:46:56.766Z,0.00
2018-09-29T21:47:56.762Z,0.00
2018-09-29T21:48:56.743Z,0.00
2018-09-29T21:49:56.757Z,0.00
2018-09-29T21:50:56.733Z,0.00
2018-09-29T21:51:56.710Z,0.00
2018-09-29T21:52:56.708Z,0.00
2018-09-29T21:53:56.703Z,0.00
2018-09-29T21:54:56.708Z,0.00
2018-09-29T21:55:56.697Z,0.00
2018-09-29T21:56:56.672Z,0.00